sensor_id;sensor_type;location;lat;lon;timestamp;pressure;altitude;pressure_sealevel;temperature;humidity
21838;BME280;11081;45.946;6.140;2024-03-06T00:02:08;95266.91;;;5.45;97.50
21838;BME280;11081;45.946;6.140;2024-03-06T00:04:36;95272.09;;;5.45;96.30
21838;BME280;11081;45.946;6.140;2024-03-06T00:07:04;95278.25;;;5.44;97.10
21838;BME280;11081;45.946;6.140;2024-03-06T00:09:32;95274.78;;;5.37;96.49
21838;BME280;11081;45.946;6.140;2024-03-06T00:12:00;95277.50;;;5.29;97.16
21838;BME280;11081;45.946;6.140;2024-03-06T00:14:30;95279.94;;;5.37;97.80
21838;BME280;11081;45.946;6.140;2024-03-06T00:16:58;95281.22;;;5.41;96.97
21838;BME280;11081;45.946;6.140;2024-03-06T00:19:26;95283.16;;;5.39;97.45
21838;BME280;11081;45.946;6.140;2024-03-06T00:21:54;95293.50;;;5.39;97.41
21838;BME280;11081;45.946;6.140;2024-03-06T00:24:22;95292.34;;;5.42;98.24
21838;BME280;11081;45.946;6.140;2024-03-06T00:26:50;95288.78;;;5.43;98.22
21838;BME280;11081;45.946;6.140;2024-03-06T00:29:18;95294.75;;;5.43;98.09
21838;BME280;11081;45.946;6.140;2024-03-06T00:31:48;95292.78;;;5.45;97.16
21838;BME280;11081;45.946;6.140;2024-03-06T00:34:16;95288.22;;;5.26;99.03
21838;BME280;11081;45.946;6.140;2024-03-06T00:36:44;95286.44;;;5.27;100.00
21838;BME280;11081;45.946;6.140;2024-03-06T00:39:11;95298.19;;;5.29;100.00
21838;BME280;11081;45.946;6.140;2024-03-06T00:41:41;95304.59;;;5.33;100.00
21838;BME280;11081;45.946;6.140;2024-03-06T00:44:09;95301.72;;;5.22;99.36
21838;BME280;11081;45.946;6.140;2024-03-06T00:46:38;95303.22;;;5.16;100.00
21838;BME280;11081;45.946;6.140;2024-03-06T00:49:08;95302.84;;;5.19;100.00
21838;BME280;11081;45.946;6.140;2024-03-06T00:51:36;95304.69;;;5.04;99.90
21838;BME280;11081;45.946;6.140;2024-03-06T00:54:14;95309.78;;;4.97;100.00
21838;BME280;11081;45.946;6.140;2024-03-06T00:56:43;95301.50;;;5.02;100.00
21838;BME280;11081;45.946;6.140;2024-03-06T00:59:11;95307.53;;;5.09;100.00
21838;BME280;11081;45.946;6.140;2024-03-06T01:01:40;95307.47;;;5.02;100.00
21838;BME280;11081;45.946;6.140;2024-03-06T01:04:09;95306.38;;;5.11;100.00
21838;BME280;11081;45.946;6.140;2024-03-06T01:06:37;95298.06;;;5.16;100.00
21838;BME280;11081;45.946;6.140;2024-03-06T01:09:05;95307.16;;;5.12;100.00
21838;BME280;11081;45.946;6.140;2024-03-06T01:11:33;95307.78;;;5.14;100.00
21838;BME280;11081;45.946;6.140;2024-03-06T01:14:01;95311.59;;;5.18;100.00
21838;BME280;11081;45.946;6.140;2024-03-06T01:16:30;95311.59;;;5.18;100.00
21838;BME280;11081;45.946;6.140;2024-03-06T01:18:58;95310.16;;;5.30;100.00
21838;BME280;11081;45.946;6.140;2024-03-06T01:21:28;95313.88;;;5.42;100.00
21838;BME280;11081;45.946;6.140;2024-03-06T01:23:56;95316.50;;;5.49;100.00
21838;BME280;11081;45.946;6.140;2024-03-06T01:26:24;95315.94;;;5.54;100.00
21838;BME280;11081;45.946;6.140;2024-03-06T01:28:52;95324.56;;;5.61;100.00
21838;BME280;11081;45.946;6.140;2024-03-06T01:31:20;95321.63;;;5.64;99.29
21838;BME280;11081;45.946;6.140;2024-03-06T01:33:48;95320.19;;;5.61;99.26
21838;BME280;11081;45.946;6.140;2024-03-06T01:36:16;95316.19;;;5.59;99.92
21838;BME280;11081;45.946;6.140;2024-03-06T01:38:45;95321.63;;;5.64;99.18
21838;BME280;11081;45.946;6.140;2024-03-06T01:41:14;95321.25;;;5.67;99.10
21838;BME280;11081;45.946;6.140;2024-03-06T01:43:42;95314.47;;;5.66;98.99
21838;BME280;11081;45.946;6.140;2024-03-06T01:46:10;95314.53;;;5.72;98.52
21838;BME280;11081;45.946;6.140;2024-03-06T01:48:38;95312.53;;;5.74;98.12
21838;BME280;11081;45.946;6.140;2024-03-06T01:51:16;95310.91;;;5.67;97.94
21838;BME280;11081;45.946;6.140;2024-03-06T01:53:44;95314.47;;;5.66;98.44
21838;BME280;11081;45.946;6.140;2024-03-06T01:56:12;95317.31;;;5.71;97.59
21838;BME280;11081;45.946;6.140;2024-03-06T01:58:45;95312.13;;;5.71;97.63
21838;BME280;11081;45.946;6.140;2024-03-06T02:01:15;95314.84;;;5.63;96.31
21838;BME280;11081;45.946;6.140;2024-03-06T02:03:44;95313.97;;;5.56;97.47
21838;BME280;11081;45.946;6.140;2024-03-06T02:06:15;95312.75;;;5.51;97.64
21838;BME280;11081;45.946;6.140;2024-03-06T02:08:46;95307.94;;;5.48;97.65
21838;BME280;11081;45.946;6.140;2024-03-06T02:11:14;95311.88;;;5.44;97.83
21838;BME280;11081;45.946;6.140;2024-03-06T02:13:43;95311.16;;;5.50;97.77
21838;BME280;11081;45.946;6.140;2024-03-06T02:16:11;95309.16;;;5.53;97.87
21838;BME280;11081;45.946;6.140;2024-03-06T02:18:51;95314.34;;;5.53;98.56
21838;BME280;11081;45.946;6.140;2024-03-06T02:21:22;95314.22;;;5.61;98.59
21838;BME280;11081;45.946;6.140;2024-03-06T02:23:50;95313.59;;;5.59;98.47
21838;BME280;11081;45.946;6.140;2024-03-06T02:26:18;95305.59;;;5.54;98.52
21838;BME280;11081;45.946;6.140;2024-03-06T02:28:47;95313.59;;;5.59;99.01
21838;BME280;11081;45.946;6.140;2024-03-06T02:31:16;95310.03;;;5.60;98.66
21838;BME280;11081;45.946;6.140;2024-03-06T02:33:46;95309.69;;;5.63;99.11
21838;BME280;11081;45.946;6.140;2024-03-06T02:36:15;95318.41;;;5.62;98.50
21838;BME280;11081;45.946;6.140;2024-03-06T02:38:45;95311.28;;;5.64;97.93
21838;BME280;11081;45.946;6.140;2024-03-06T02:41:13;95309.91;;;5.68;97.91
21838;BME280;11081;45.946;6.140;2024-03-06T02:43:43;95307.31;;;5.68;97.98
21838;BME280;11081;45.946;6.140;2024-03-06T02:46:11;95321.44;;;5.65;97.63
21838;BME280;11081;45.946;6.140;2024-03-06T02:48:39;95316.78;;;5.61;97.40
21838;BME280;11081;45.946;6.140;2024-03-06T02:51:07;95316.78;;;5.61;97.94
21838;BME280;11081;45.946;6.140;2024-03-06T02:53:35;95321.63;;;5.64;97.62
21838;BME280;11081;45.946;6.140;2024-03-06T02:56:05;95317.25;;;5.64;98.35
21838;BME280;11081;45.946;6.140;2024-03-06T02:58:35;95316.69;;;5.69;98.93
21838;BME280;11081;45.946;6.140;2024-03-06T03:01:03;95317.69;;;5.68;97.71
21838;BME280;11081;45.946;6.140;2024-03-06T03:03:31;95318.91;;;5.72;98.45
21838;BME280;11081;45.946;6.140;2024-03-06T03:05:59;95320.50;;;5.73;98.49
21838;BME280;11081;45.946;6.140;2024-03-06T03:08:27;95324.09;;;5.72;98.16
21838;BME280;11081;45.946;6.140;2024-03-06T03:10:55;95325.31;;;5.76;98.33
21838;BME280;11081;45.946;6.140;2024-03-06T03:13:25;95330.06;;;5.72;97.84
21838;BME280;11081;45.946;6.140;2024-03-06T03:15:53;95325.69;;;5.73;98.69
21838;BME280;11081;45.946;6.140;2024-03-06T03:18:21;95328.88;;;5.75;98.20
21838;BME280;11081;45.946;6.140;2024-03-06T03:20:49;95323.88;;;5.73;98.46
21838;BME280;11081;45.946;6.140;2024-03-06T03:23:17;95332.09;;;5.77;98.85
21838;BME280;11081;45.946;6.140;2024-03-06T03:25:49;95330.09;;;5.79;96.94
21838;BME280;11081;45.946;6.140;2024-03-06T03:28:17;95333.22;;;5.68;97.88
21838;BME280;11081;45.946;6.140;2024-03-06T03:30:46;95333.59;;;5.65;99.32
21838;BME280;11081;45.946;6.140;2024-03-06T03:33:14;95330.25;;;5.71;98.30
21838;BME280;11081;45.946;6.140;2024-03-06T03:35:43;95335.25;;;5.72;97.63
21838;BME280;11081;45.946;6.140;2024-03-06T03:38:11;95333.69;;;5.78;98.24
21838;BME280;11081;45.946;6.140;2024-03-06T03:40:39;95340.22;;;5.74;97.52
21838;BME280;11081;45.946;6.140;2024-03-06T03:43:07;95336.19;;;5.65;97.92
21838;BME280;11081;45.946;6.140;2024-03-06T03:45:35;95336.88;;;5.59;97.67
21838;BME280;11081;45.946;6.140;2024-03-06T03:48:05;95330.25;;;5.49;99.41
21838;BME280;11081;45.946;6.140;2024-03-06T03:50:33;95335.47;;;5.56;99.52
21838;BME280;11081;45.946;6.140;2024-03-06T03:53:02;95339.09;;;5.62;98.96
21838;BME280;11081;45.946;6.140;2024-03-06T03:55:30;95340.75;;;5.63;99.39
21838;BME280;11081;45.946;6.140;2024-03-06T03:57:58;95345.53;;;5.66;98.96
21838;BME280;11081;45.946;6.140;2024-03-06T04:00:26;95336.78;;;5.67;99.17
21838;BME280;11081;45.946;6.140;2024-03-06T04:02:54;95340.00;;;5.69;98.78
21838;BME280;11081;45.946;6.140;2024-03-06T04:05:24;95346.03;;;5.76;98.49
21838;BME280;11081;45.946;6.140;2024-03-06T04:07:52;95352.00;;;5.76;98.31
21838;BME280;11081;45.946;6.140;2024-03-06T04:10:20;95359.34;;;5.51;98.87
21838;BME280;11081;45.946;6.140;2024-03-06T04:12:48;95350.59;;;5.53;99.49
21838;BME280;11081;45.946;6.140;2024-03-06T04:15:16;95346.75;;;5.48;100.00
21838;BME280;11081;45.946;6.140;2024-03-06T04:17:44;95350.59;;;5.53;100.00
21838;BME280;11081;45.946;6.140;2024-03-06T04:20:12;95360.19;;;5.59;100.00
21838;BME280;11081;45.946;6.140;2024-03-06T04:22:43;95357.41;;;5.60;99.88
21838;BME280;11081;45.946;6.140;2024-03-06T04:25:13;95355.00;;;5.59;100.00
21838;BME280;11081;45.946;6.140;2024-03-06T04:27:41;95356.63;;;5.60;99.83
21838;BME280;11081;45.946;6.140;2024-03-06T04:30:10;95367.06;;;5.66;99.77
21838;BME280;11081;45.946;6.140;2024-03-06T04:32:38;95358.13;;;5.69;99.97
21838;BME280;11081;45.946;6.140;2024-03-06T04:35:07;95356.13;;;5.71;99.35
21838;BME280;11081;45.946;6.140;2024-03-06T04:37:36;95363.91;;;5.71;99.67
21838;BME280;11081;45.946;6.140;2024-03-06T04:40:06;95363.53;;;5.74;98.61
21838;BME280;11081;45.946;6.140;2024-03-06T04:42:35;95363.16;;;5.77;99.13
21838;BME280;11081;45.946;6.140;2024-03-06T04:45:08;95355.75;;;5.74;98.89
21838;BME280;11081;45.946;6.140;2024-03-06T04:47:36;95363.16;;;5.77;99.92
21838;BME280;11081;45.946;6.140;2024-03-06T04:50:08;95364.75;;;5.78;99.37
21838;BME280;11081;45.946;6.140;2024-03-06T04:52:36;95369.94;;;5.78;99.32
21838;BME280;11081;45.946;6.140;2024-03-06T04:55:07;95372.28;;;5.73;98.89
21838;BME280;11081;45.946;6.140;2024-03-06T04:57:37;95365.50;;;5.72;100.00
21838;BME280;11081;45.946;6.140;2024-03-06T05:00:06;95370.31;;;5.75;100.00
21838;BME280;11081;45.946;6.140;2024-03-06T05:02:35;95367.53;;;5.76;99.17
21838;BME280;11081;45.946;6.140;2024-03-06T05:05:21;95374.13;;;5.79;100.00
21838;BME280;11081;45.946;6.140;2024-03-06T05:08:06;95373.50;;;5.77;99.34
21838;BME280;11081;45.946;6.140;2024-03-06T05:10:55;95380.06;;;5.73;99.96
21838;BME280;11081;45.946;6.140;2024-03-06T05:13:40;95385.84;;;5.75;99.98
21838;BME280;11081;45.946;6.140;2024-03-06T05:16:26;95391.41;;;5.72;99.81
21838;BME280;11081;45.946;6.140;2024-03-06T05:19:11;95391.41;;;5.72;100.00
21838;BME280;11081;45.946;6.140;2024-03-06T05:21:57;95388.44;;;5.75;100.00
21838;BME280;11081;45.946;6.140;2024-03-06T05:24:43;95386.66;;;5.75;99.48
21838;BME280;11081;45.946;6.140;2024-03-06T05:27:30;95392.63;;;5.76;99.98
21838;BME280;11081;45.946;6.140;2024-03-06T05:30:16;95399.78;;;5.74;100.00
21838;BME280;11081;45.946;6.140;2024-03-06T05:33:01;95403.34;;;5.73;100.00
21838;BME280;11081;45.946;6.140;2024-03-06T05:35:47;95406.31;;;5.70;99.38
21838;BME280;11081;45.946;6.140;2024-03-06T05:38:32;95397.91;;;5.46;100.00
21838;BME280;11081;45.946;6.140;2024-03-06T05:41:17;95403.47;;;5.29;100.00
21838;BME280;11081;45.946;6.140;2024-03-06T05:44:04;95406.88;;;5.29;100.00
21838;BME280;11081;45.946;6.140;2024-03-06T05:46:50;95409.25;;;5.31;100.00
21838;BME280;11081;45.946;6.140;2024-03-06T05:49:35;95411.84;;;5.45;100.00
21838;BME280;11081;45.946;6.140;2024-03-06T05:52:21;95416.28;;;5.51;100.00
21838;BME280;11081;45.946;6.140;2024-03-06T05:55:07;95414.13;;;5.40;100.00
21838;BME280;11081;45.946;6.140;2024-03-06T05:57:52;95413.88;;;5.35;99.68
21838;BME280;11081;45.946;6.140;2024-03-06T06:00:41;95417.38;;;5.42;100.00
21838;BME280;11081;45.946;6.140;2024-03-06T06:03:09;95422.63;;;5.49;100.00
21838;BME280;11081;45.946;6.140;2024-03-06T06:05:39;95413.06;;;5.49;99.74
21838;BME280;11081;45.946;6.140;2024-03-06T06:08:07;95422.44;;;5.50;100.00
21838;BME280;11081;45.946;6.140;2024-03-06T06:10:36;95418.69;;;5.53;100.00
21838;BME280;11081;45.946;6.140;2024-03-06T06:13:04;95429.47;;;5.57;100.00
21838;BME280;11081;45.946;6.140;2024-03-06T06:15:32;95427.50;;;5.59;100.00
21838;BME280;11081;45.946;6.140;2024-03-06T06:18:01;95423.91;;;5.60;99.83
21838;BME280;11081;45.946;6.140;2024-03-06T06:20:30;95427.13;;;5.62;100.00
21838;BME280;11081;45.946;6.140;2024-03-06T06:22:58;95429.56;;;5.63;100.00
21838;BME280;11081;45.946;6.140;2024-03-06T06:25:26;95440.91;;;5.62;100.00
21838;BME280;11081;45.946;6.140;2024-03-06T06:27:54;95444.63;;;5.60;100.00
21838;BME280;11081;45.946;6.140;2024-03-06T06:30:22;95437.84;;;5.59;100.00
21838;BME280;11081;45.946;6.140;2024-03-06T06:32:50;95439.44;;;5.60;100.00
21838;BME280;11081;45.946;6.140;2024-03-06T06:35:19;95441.94;;;5.68;100.00
21838;BME280;11081;45.946;6.140;2024-03-06T06:37:49;95439.97;;;5.70;100.00
21838;BME280;11081;45.946;6.140;2024-03-06T06:40:17;95446.75;;;5.71;100.00
21838;BME280;11081;45.946;6.140;2024-03-06T06:42:48;95443.53;;;5.69;99.97
21838;BME280;11081;45.946;6.140;2024-03-06T06:45:17;95443.53;;;5.69;100.00
21838;BME280;11081;45.946;6.140;2024-03-06T06:47:46;95447.50;;;5.65;100.00
21838;BME280;11081;45.946;6.140;2024-03-06T06:50:14;95447.50;;;5.65;99.70
21838;BME280;11081;45.946;6.140;2024-03-06T06:52:43;95449.47;;;5.63;99.71
21838;BME280;11081;45.946;6.140;2024-03-06T06:55:11;95452.66;;;5.65;100.00
21838;BME280;11081;45.946;6.140;2024-03-06T06:57:40;95449.28;;;5.64;99.54
21838;BME280;11081;45.946;6.140;2024-03-06T07:00:08;95454.88;;;5.68;100.00
21838;BME280;11081;45.946;6.140;2024-03-06T07:02:39;95453.53;;;5.72;99.32
21838;BME280;11081;45.946;6.140;2024-03-06T07:05:08;95453.53;;;5.72;99.57
21838;BME280;11081;45.946;6.140;2024-03-06T07:07:37;95456.00;;;5.80;99.49
21838;BME280;11081;45.946;6.140;2024-03-06T07:10:08;95459.75;;;5.77;99.28
21838;BME280;11081;45.946;6.140;2024-03-06T07:12:36;95460.31;;;5.73;99.99
21838;BME280;11081;45.946;6.140;2024-03-06T07:15:05;95458.72;;;5.72;99.47
21838;BME280;11081;45.946;6.140;2024-03-06T07:17:33;95459.94;;;5.76;100.00
21838;BME280;11081;45.946;6.140;2024-03-06T07:20:02;95467.16;;;5.80;100.00
21838;BME280;11081;45.946;6.140;2024-03-06T07:22:32;95470.84;;;5.86;100.00
21838;BME280;11081;45.946;6.140;2024-03-06T07:25:00;95473.69;;;5.91;99.55
21838;BME280;11081;45.946;6.140;2024-03-06T07:27:30;95478.13;;;5.97;98.96
21838;BME280;11081;45.946;6.140;2024-03-06T07:29:58;95465.63;;;6.01;100.00
21838;BME280;11081;45.946;6.140;2024-03-06T07:32:26;95474.09;;;6.09;99.40
21838;BME280;11081;45.946;6.140;2024-03-06T07:34:54;95475.13;;;6.15;100.00
21838;BME280;11081;45.946;6.140;2024-03-06T07:37:22;95475.56;;;6.19;100.00
21838;BME280;11081;45.946;6.140;2024-03-06T07:39:50;95478.75;;;6.21;99.71
21838;BME280;11081;45.946;6.140;2024-03-06T07:42:19;95479.13;;;6.18;99.33
21838;BME280;11081;45.946;6.140;2024-03-06T07:44:49;95477.53;;;6.17;99.94
21838;BME280;11081;45.946;6.140;2024-03-06T07:47:17;95477.16;;;6.20;100.00
21838;BME280;11081;45.946;6.140;2024-03-06T07:49:45;95485.91;;;6.19;99.67
21838;BME280;11081;45.946;6.140;2024-03-06T07:52:13;95480.75;;;6.19;100.00
21838;BME280;11081;45.946;6.140;2024-03-06T07:54:41;95487.03;;;6.09;99.83
21838;BME280;11081;45.946;6.140;2024-03-06T07:57:09;95486.53;;;5.99;98.88
21838;BME280;11081;45.946;6.140;2024-03-06T07:59:37;95490.09;;;5.98;98.26
21838;BME280;11081;45.946;6.140;2024-03-06T08:02:08;95491.19;;;5.89;98.57
21838;BME280;11081;45.946;6.140;2024-03-06T08:04:36;95489.94;;;5.85;97.77
21838;BME280;11081;45.946;6.140;2024-03-06T08:07:04;95484.25;;;5.75;96.63
21838;BME280;11081;45.946;6.140;2024-03-06T08:09:32;95481.03;;;5.73;97.67
21838;BME280;11081;45.946;6.140;2024-03-06T08:12:00;95490.66;;;5.79;96.44
21838;BME280;11081;45.946;6.140;2024-03-06T08:14:29;95487.63;;;5.90;96.86
21838;BME280;11081;45.946;6.140;2024-03-06T08:16:57;95492.59;;;6.06;96.41
21838;BME280;11081;45.946;6.140;2024-03-06T08:19:26;95491.34;;;6.02;95.84
21838;BME280;11081;45.946;6.140;2024-03-06T08:21:54;95493.69;;;5.97;96.10
21838;BME280;11081;45.946;6.140;2024-03-06T08:24:22;95496.25;;;5.97;95.86
21838;BME280;11081;45.946;6.140;2024-03-06T08:26:50;95496.91;;;5.85;95.44
21838;BME280;11081;45.946;6.140;2024-03-06T08:29:19;95494.41;;;5.91;96.64
21838;BME280;11081;45.946;6.140;2024-03-06T08:31:47;95491.28;;;5.96;97.09
21838;BME280;11081;45.946;6.140;2024-03-06T08:34:15;95496.09;;;5.99;96.92
21838;BME280;11081;45.946;6.140;2024-03-06T08:36:46;95497.41;;;6.09;95.98
21838;BME280;11081;45.946;6.140;2024-03-06T08:39:14;95498.25;;;6.17;96.00
21838;BME280;11081;45.946;6.140;2024-03-06T08:41:43;95503.50;;;6.23;94.92
21838;BME280;11081;45.946;6.140;2024-03-06T08:44:11;95497.50;;;6.23;93.83
21838;BME280;11081;45.946;6.140;2024-03-06T08:46:39;95497.41;;;6.31;93.55
21838;BME280;11081;45.946;6.140;2024-03-06T08:49:07;95488.94;;;6.43;94.14
21838;BME280;11081;45.946;6.140;2024-03-06T08:51:37;95496.66;;;6.58;92.25
21838;BME280;11081;45.946;6.140;2024-03-06T08:54:06;95490.34;;;6.67;91.18
21838;BME280;11081;45.946;6.140;2024-03-06T08:56:42;95498.38;;;6.72;91.21
21838;BME280;11081;45.946;6.140;2024-03-06T08:59:12;95497.56;;;6.72;89.83
21838;BME280;11081;45.946;6.140;2024-03-06T09:01:40;95500.19;;;6.79;90.65
21838;BME280;11081;45.946;6.140;2024-03-06T09:04:08;95503.28;;;6.89;90.46
21838;BME280;11081;45.946;6.140;2024-03-06T09:06:36;95512.41;;;6.85;92.64
21838;BME280;11081;45.946;6.140;2024-03-06T09:09:05;95509.50;;;6.66;92.28
21838;BME280;11081;45.946;6.140;2024-03-06T09:11:36;95509.25;;;6.61;93.08
21838;BME280;11081;45.946;6.140;2024-03-06T09:14:04;95503.56;;;6.72;92.85
21838;BME280;11081;45.946;6.140;2024-03-06T09:16:32;95512.09;;;6.94;92.40
21838;BME280;11081;45.946;6.140;2024-03-06T09:19:01;95518.13;;;7.01;91.76
21838;BME280;11081;45.946;6.140;2024-03-06T09:21:29;95513.84;;;7.15;91.35
21838;BME280;11081;45.946;6.140;2024-03-06T09:23:57;95504.69;;;7.19;90.95
21838;BME280;11081;45.946;6.140;2024-03-06T09:26:26;95506.28;;;7.20;91.42
21838;BME280;11081;45.946;6.140;2024-03-06T09:28:54;95518.69;;;7.25;91.15
21838;BME280;11081;45.946;6.140;2024-03-06T09:31:22;95511.56;;;7.33;90.80
21838;BME280;11081;45.946;6.140;2024-03-06T09:33:51;95512.56;;;7.32;90.40
21838;BME280;11081;45.946;6.140;2024-03-06T09:36:19;95515.53;;;7.29;90.94
21838;BME280;11081;45.946;6.140;2024-03-06T09:38:47;95518.00;;;7.10;90.52
21838;BME280;11081;45.946;6.140;2024-03-06T09:41:15;95518.19;;;7.08;91.20
21838;BME280;11081;45.946;6.140;2024-03-06T09:43:45;95506.53;;;6.69;91.93
21838;BME280;11081;45.946;6.140;2024-03-06T09:46:13;95516.38;;;6.81;92.38
21838;BME280;11081;45.946;6.140;2024-03-06T09:48:46;95512.75;;;7.03;91.96
21838;BME280;11081;45.946;6.140;2024-03-06T09:51:14;95515.06;;;7.19;91.95
21838;BME280;11081;45.946;6.140;2024-03-06T09:53:42;95507.97;;;7.34;91.38
21838;BME280;11081;45.946;6.140;2024-03-06T09:56:11;95502.19;;;7.39;90.30
21838;BME280;11081;45.946;6.140;2024-03-06T09:58:38;95508.03;;;7.48;89.70
21838;BME280;11081;45.946;6.140;2024-03-06T10:01:08;95514.06;;;7.55;90.34
21838;BME280;11081;45.946;6.140;2024-03-06T10:03:39;95512.47;;;7.54;90.78
21838;BME280;11081;45.946;6.140;2024-03-06T10:06:08;95510.16;;;7.72;91.23
21838;BME280;11081;45.946;6.140;2024-03-06T10:08:42;95514.81;;;7.49;88.36
21838;BME280;11081;45.946;6.140;2024-03-06T10:11:11;95506.41;;;7.47;88.72
21838;BME280;11081;45.946;6.140;2024-03-06T10:13:39;95508.41;;;7.45;88.74
21838;BME280;11081;45.946;6.140;2024-03-06T10:16:08;95514.47;;;7.52;88.07
21838;BME280;11081;45.946;6.140;2024-03-06T10:18:38;95521.69;;;7.63;87.18
21838;BME280;11081;45.946;6.140;2024-03-06T10:21:06;95517.56;;;7.75;86.38
21838;BME280;11081;45.946;6.140;2024-03-06T10:23:35;95514.19;;;7.81;86.75
21838;BME280;11081;45.946;6.140;2024-03-06T10:26:07;95517.50;;;7.27;87.01
21838;BME280;11081;45.946;6.140;2024-03-06T10:28:35;95520.28;;;7.26;87.68
21838;BME280;11081;45.946;6.140;2024-03-06T10:31:04;95518.41;;;7.48;87.26
21838;BME280;11081;45.946;6.140;2024-03-06T10:33:36;95510.97;;;7.73;85.42
21838;BME280;11081;45.946;6.140;2024-03-06T10:36:05;95517.38;;;7.83;84.66
21838;BME280;11081;45.946;6.140;2024-03-06T10:38:35;95514.44;;;7.93;84.73
21838;BME280;11081;45.946;6.140;2024-03-06T10:41:05;95498.66;;;8.08;84.59
21838;BME280;11081;45.946;6.140;2024-03-06T10:43:36;95505.38;;;7.82;84.49
21838;BME280;11081;45.946;6.140;2024-03-06T10:46:06;95503.00;;;7.87;84.93
21838;BME280;11081;45.946;6.140;2024-03-06T10:48:40;95504.56;;;7.75;84.70
21838;BME280;11081;45.946;6.140;2024-03-06T10:51:10;95502.44;;;7.99;84.24
21838;BME280;11081;45.946;6.140;2024-03-06T10:53:38;95499.59;;;7.80;82.55
21838;BME280;11081;45.946;6.140;2024-03-06T10:56:08;95499.03;;;7.91;83.15
21838;BME280;11081;45.946;6.140;2024-03-06T10:58:38;95502.13;;;7.67;83.17
21838;BME280;11081;45.946;6.140;2024-03-06T11:01:08;95497.81;;;7.87;83.31
21838;BME280;11081;45.946;6.140;2024-03-06T11:03:38;95494.66;;;7.99;81.91
21838;BME280;11081;45.946;6.140;2024-03-06T11:06:06;95506.84;;;8.05;80.41
21838;BME280;11081;45.946;6.140;2024-03-06T11:08:35;95500.44;;;7.94;81.28
21838;BME280;11081;45.946;6.140;2024-03-06T11:11:21;95498.09;;;7.58;80.45
21838;BME280;11081;45.946;6.140;2024-03-06T11:13:54;95498.50;;;7.55;81.33
21838;BME280;11081;45.946;6.140;2024-03-06T11:16:28;95508.38;;;7.73;79.00
21838;BME280;11081;45.946;6.140;2024-03-06T11:19:08;95501.78;;;7.83;76.67
21838;BME280;11081;45.946;6.140;2024-03-06T11:21:45;95507.81;;;7.90;76.30
21838;BME280;11081;45.946;6.140;2024-03-06T11:24:23;95499.66;;;8.00;76.69
21838;BME280;11081;45.946;6.140;2024-03-06T11:26:55;95494.91;;;8.17;77.95
21838;BME280;11081;45.946;6.140;2024-03-06T11:29:28;95505.56;;;8.35;77.61
21838;BME280;11081;45.946;6.140;2024-03-06T11:32:04;95504.38;;;8.51;77.72
21838;BME280;11081;45.946;6.140;2024-03-06T11:34:37;95499.97;;;8.51;77.76
21838;BME280;11081;45.946;6.140;2024-03-06T11:37:06;95504.41;;;8.58;77.76
21838;BME280;11081;45.946;6.140;2024-03-06T11:39:37;95498.19;;;8.59;77.87
21838;BME280;11081;45.946;6.140;2024-03-06T11:42:06;95494.00;;;8.58;77.82
21838;BME280;11081;45.946;6.140;2024-03-06T11:44:36;95495.59;;;8.59;77.46
21838;BME280;11081;45.946;6.140;2024-03-06T11:47:05;95492.00;;;8.60;76.96
21838;BME280;11081;45.946;6.140;2024-03-06T11:49:37;95482.38;;;8.53;76.91
21838;BME280;11081;45.946;6.140;2024-03-06T11:52:06;95484.00;;;8.54;76.38
21838;BME280;11081;45.946;6.140;2024-03-06T11:54:37;95482.78;;;8.57;75.71
21838;BME280;11081;45.946;6.140;2024-03-06T11:57:05;95483.97;;;8.68;75.02
21838;BME280;11081;45.946;6.140;2024-03-06T11:59:35;95484.78;;;8.88;73.01
21838;BME280;11081;45.946;6.140;2024-03-06T12:02:06;95479.97;;;8.98;70.68
21838;BME280;11081;45.946;6.140;2024-03-06T12:04:36;95478.75;;;8.94;69.24
21838;BME280;11081;45.946;6.140;2024-03-06T12:07:06;95475.16;;;8.89;69.56
21838;BME280;11081;45.946;6.140;2024-03-06T12:09:36;95473.97;;;8.91;69.33
21838;BME280;11081;45.946;6.140;2024-03-06T12:12:09;95472.38;;;8.77;68.39
21838;BME280;11081;45.946;6.140;2024-03-06T12:14:38;95470.97;;;8.81;69.18
21838;BME280;11081;45.946;6.140;2024-03-06T12:17:11;95468.78;;;8.78;69.58
21838;BME280;11081;45.946;6.140;2024-03-06T12:19:43;95463.16;;;8.81;69.46
21838;BME280;11081;45.946;6.140;2024-03-06T12:22:12;95465.97;;;8.86;70.19
21838;BME280;11081;45.946;6.140;2024-03-06T12:24:41;95454.94;;;8.97;70.10
21838;BME280;11081;45.946;6.140;2024-03-06T12:27:09;95453.13;;;9.18;68.97
21838;BME280;11081;45.946;6.140;2024-03-06T12:29:39;95444.63;;;9.42;69.12
21838;BME280;11081;45.946;6.140;2024-03-06T12:32:16;95443.16;;;9.59;68.27
21838;BME280;11081;45.946;6.140;2024-03-06T12:34:57;95436.09;;;9.66;68.37
21838;BME280;11081;45.946;6.140;2024-03-06T12:37:31;95438.38;;;9.94;68.55
21838;BME280;11081;45.946;6.140;2024-03-06T12:40:01;95441.53;;;10.03;67.33
21838;BME280;11081;45.946;6.140;2024-03-06T12:42:31;95440.84;;;9.76;66.77
21838;BME280;11081;45.946;6.140;2024-03-06T12:44:59;95439.94;;;9.57;66.78
21838;BME280;11081;45.946;6.140;2024-03-06T12:47:27;95432.59;;;9.41;65.78
21838;BME280;11081;45.946;6.140;2024-03-06T12:49:57;95439.53;;;8.89;62.93
21838;BME280;11081;45.946;6.140;2024-03-06T12:52:26;95441.16;;;8.50;64.71
21838;BME280;11081;45.946;6.140;2024-03-06T12:54:54;95438.75;;;8.42;66.41
21838;BME280;11081;45.946;6.140;2024-03-06T12:57:22;95434.34;;;8.43;66.54
21838;BME280;11081;45.946;6.140;2024-03-06T12:59:49;95431.16;;;8.47;64.93
21838;BME280;11081;45.946;6.140;2024-03-06T13:02:17;95428.75;;;8.39;64.75
21838;BME280;11081;45.946;6.140;2024-03-06T13:04:45;95429.97;;;8.43;63.63
21838;BME280;11081;45.946;6.140;2024-03-06T13:07:15;95423.94;;;8.49;64.31
21838;BME280;11081;45.946;6.140;2024-03-06T13:09:43;95418.75;;;8.76;63.48
21838;BME280;11081;45.946;6.140;2024-03-06T13:12:11;95420.69;;;9.07;63.99
21838;BME280;11081;45.946;6.140;2024-03-06T13:14:39;95412.56;;;9.35;62.89
21838;BME280;11081;45.946;6.140;2024-03-06T13:17:08;95412.06;;;9.64;62.99
21838;BME280;11081;45.946;6.140;2024-03-06T13:19:36;95419.75;;;9.91;61.40
21838;BME280;11081;45.946;6.140;2024-03-06T13:22:04;95419.47;;;9.99;61.84
21838;BME280;11081;45.946;6.140;2024-03-06T13:24:35;95411.47;;;9.62;62.36
21838;BME280;11081;45.946;6.140;2024-03-06T13:27:09;95423.25;;;9.71;61.29